LFBE/EGC METAR and TAF weather

Enter ICAO airport designator
Station Type Date Time Source
LFBE METAR 2020/07/12 00:00 UTC NOAA

LFBE 120000Z AUTO 00000KT CAVOK 12/09 Q1020 NOSIG


Station Type Date Time Source
LFBE Decoded METAR 2020/07/12 00:00 UTC NOAA

Bergerac, France (LFBE) 44-49N 000-31E 52M
Jul 11, 2020 - 08:00 PM EDT / 2020.07.12 0000 UTC
Wind: Calm:0
Visibility: greater than 7 mile(s):0
Temperature: 53 F (12 C)
Dew Point: 48 F (9 C)
Relative Humidity: 81%
Pressure (altimeter): 30.12 in. Hg (1020 hPa)
ob: LFBE 120000Z AUTO 00000KT CAVOK 12/09 Q1020 NOSIG
cycle: 0

Station Type Date Time Source
LFBE TAF 2020/07/11 20:27 UTC NOAA

TAF TAF LFBE 112000Z 1120/1212 CNL

Example: see airport list